Time;durP1;ratioP1;P1;durP2;ratioP2;P2;SDS_P1;SDS_P2;PMS_P1;PMS_P2;Temp;Humidity;BMP_temperature;BMP_pressure;BME280_temperature;BME280_humidity;BME280_pressure;Samples;Min_cycle;Max_cycle;Signal;HPM_P1;HPM_P2
2024/01/28 00:02:32;;;;;;;10.70;4.20;;;;;;;0.84;96.88;98228.73;108771;1273;163803;-77
2024/01/28 00:05:06;;;;;;;10.60;3.90;;;;;;;0.84;96.68;98225.11;108799;1272;22531;-76
2024/01/28 00:07:45;;;;;;;15.50;4.20;;;;;;;0.84;96.55;98231.25;108902;1272;24187;-76
2024/01/28 00:10:21;;;;;;;11.70;3.90;;;;;;;0.85;96.54;98232.33;108740;1272;23769;-77
2024/01/28 00:12:57;;;;;;;11.40;3.80;;;;;;;0.84;96.45;98235.23;108444;1272;22486;-77
2024/01/28 00:15:29;;;;;;;9.30;3.70;;;;;;;0.85;96.56;98240.73;108473;1273;23313;-77
2024/01/28 00:18:01;;;;;;;9.60;3.40;;;;;;;0.85;96.33;98234.19;108458;1272;22513;-76
2024/01/28 00:20:33;;;;;;;14.90;4.30;;;;;;;0.85;96.19;98237.49;108465;1270;22533;-76
2024/01/28 00:23:06;;;;;;;8.60;3.90;;;;;;;0.87;96.18;98238.91;108574;1269;22624;-76
2024/01/28 00:25:38;;;;;;;11.60;3.90;;;;;;;0.88;96.17;98241.52;108840;1272;22531;-76
2024/01/28 00:28:10;;;;;;;9.70;3.40;;;;;;;0.89;96.22;98246.30;108846;1272;22461;-76
2024/01/28 00:30:46;;;;;;;13.60;3.90;;;;;;;0.88;95.81;98244.84;108926;1268;25271;-76
2024/01/28 00:33:17;;;;;;;9.60;3.70;;;;;;;0.87;95.96;98248.40;108837;1273;22475;-76
2024/01/28 00:35:51;;;;;;;13.40;4.00;;;;;;;0.87;95.87;98247.72;108880;1257;22540;-76
2024/01/28 00:38:22;;;;;;;9.60;3.60;;;;;;;0.85;95.92;98245.22;108859;1267;22531;-76
2024/01/28 00:41:02;;;;;;;10.70;3.50;;;;;;;0.79;95.56;98251.63;108880;1272;25242;-76
2024/01/28 00:43:34;;;;;;;13.80;3.70;;;;;;;0.78;95.64;98253.46;108890;1272;23324;-76
2024/01/28 00:46:07;;;;;;;11.50;3.50;;;;;;;0.79;95.62;98253.91;108919;1272;22537;-76
2024/01/28 00:48:41;;;;;;;11.30;4.20;;;;;;;0.79;95.56;98249.41;108872;1272;25258;-76
2024/01/28 00:51:13;;;;;;;19.30;4.80;;;;;;;0.77;95.38;98253.93;108836;1272;22519;-76
2024/01/28 00:53:46;;;;;;;14.50;4.40;;;;;;;0.76;95.41;98260.83;108913;1272;23788;-76
2024/01/28 00:56:20;;;;;;;9.70;4.20;;;;;;;0.76;95.34;98251.46;108871;1270;22516;-76
2024/01/28 00:58:54;;;;;;;12.50;3.80;;;;;;;0.77;95.20;98257.33;108946;1273;22973;-76
2024/01/28 01:01:25;;;;;;;16.40;5.20;;;;;;;0.75;95.23;98261.69;108901;1251;22521;-76
2024/01/28 01:03:59;;;;;;;13.00;3.50;;;;;;;0.73;95.39;98264.83;108874;1266;22518;-76
2024/01/28 01:06:30;;;;;;;10.40;4.10;;;;;;;0.73;95.18;98267.64;108860;1273;22537;-76
2024/01/28 01:09:07;;;;;;;14.10;4.10;;;;;;;0.72;95.12;98269.99;108868;1273;25278;-76
2024/01/28 01:11:43;;;;;;;13.10;4.30;;;;;;;0.75;95.26;98269.65;108824;1269;22549;-76
2024/01/28 01:14:16;;;;;;;11.50;4.00;;;;;;;0.78;95.51;98267.36;108857;1273;24970;-76
2024/01/28 01:16:54;;;;;;;11.30;4.30;;;;;;;0.82;95.36;98271.34;108880;1272;22530;-76
2024/01/28 01:19:29;;;;;;;10.30;4.30;;;;;;;0.81;95.37;98275.88;108842;1266;22971;-76
2024/01/28 01:22:03;;;;;;;12.80;4.70;;;;;;;0.81;95.35;98275.23;108892;1273;23865;-76
2024/01/28 01:24:39;;;;;;;11.40;3.80;;;;;;;0.80;95.29;98274.61;108951;1273;23881;-76
2024/01/28 01:27:13;;;;;;;10.70;3.40;;;;;;;0.82;95.26;98275.41;108976;1270;22519;-76
2024/01/28 01:29:44;;;;;;;13.20;4.50;;;;;;;0.82;95.09;98277.02;108893;1271;22623;-76
2024/01/28 01:32:15;;;;;;;13.20;4.70;;;;;;;0.81;95.28;98272.86;108876;1272;23716;-76
2024/01/28 01:34:54;;;;;;;11.10;4.60;;;;;;;0.82;95.34;98272.31;108817;1267;22527;-76
2024/01/28 01:37:27;;;;;;;13.20;4.60;;;;;;;0.84;95.44;98262.84;108901;1272;22529;-76
2024/01/28 01:39:59;;;;;;;12.90;3.90;;;;;;;0.83;95.26;98260.54;108891;1266;25415;-76
2024/01/28 01:42:30;;;;;;;16.20;5.50;;;;;;;0.80;95.11;98261.57;108836;1272;22535;-76
2024/01/28 01:45:04;;;;;;;11.50;4.70;;;;;;;0.80;94.99;98261.80;108809;1266;22694;-76
2024/01/28 01:47:37;;;;;;;6.50;3.50;;;;;;;0.80;95.02;98265.27;108861;1268;23256;-76
2024/01/28 01:50:12;;;;;;;16.60;5.30;;;;;;;0.80;94.91;98270.52;108885;1272;22721;-76
2024/01/28 01:52:45;;;;;;;12.30;4.30;;;;;;;0.81;95.02;98266.64;108902;1251;22520;-76
2024/01/28 01:55:18;;;;;;;13.20;4.90;;;;;;;0.80;95.04;98270.20;108966;1272;22527;-76
2024/01/28 01:57:53;;;;;;;13.30;4.70;;;;;;;0.79;95.00;98272.91;108899;1272;22527;-76
2024/01/28 02:00:26;;;;;;;13.30;5.70;;;;;;;0.80;95.05;98271.73;108853;1273;22518;-76
2024/01/28 02:03:01;;;;;;;17.20;5.30;;;;;;;0.81;95.14;98262.30;108833;1270;22538;-76
2024/01/28 02:05:35;;;;;;;12.60;4.60;;;;;;;0.83;94.99;98261.21;108928;1267;22949;-76
2024/01/28 02:08:14;;;;;;;15.10;5.60;;;;;;;0.84;95.21;98259.21;108869;1267;22604;-76
2024/01/28 02:10:49;;;;;;;14.60;4.90;;;;;;;0.86;95.11;98258.17;108898;1266;24294;-76
2024/01/28 02:13:22;;;;;;;11.20;5.10;;;;;;;0.88;95.14;98260.02;108882;1267;22558;-76
2024/01/28 02:15:56;;;;;;;10.00;4.20;;;;;;;0.90;95.28;98257.68;108886;1270;25900;-76
2024/01/28 02:18:27;;;;;;;12.30;5.00;;;;;;;0.90;95.30;98254.42;108872;1272;22516;-76
2024/01/28 02:20:58;;;;;;;15.30;5.60;;;;;;;0.91;95.10;98250.81;108908;1270;22504;-76
2024/01/28 02:23:29;;;;;;;17.70;5.50;;;;;;;0.89;95.11;98255.73;108898;1269;25309;-76
2024/01/28 02:26:04;;;;;;;14.50;4.50;;;;;;;0.88;95.09;98257.89;108919;1272;22547;-76
2024/01/28 02:28:36;;;;;;;11.80;5.00;;;;;;;0.93;95.25;98263.14;108874;1272;22550;-76
2024/01/28 02:31:07;;;;;;;13.20;5.10;;;;;;;0.96;95.24;98262.23;108847;1267;23800;-77
2024/01/28 02:33:38;;;;;;;12.60;5.40;;;;;;;0.98;95.28;98272.02;108895;1270;23020;-76
2024/01/28 02:36:09;;;;;;;13.80;5.50;;;;;;;1.01;95.30;98270.55;108895;1272;22544;-76
2024/01/28 02:38:43;;;;;;;9.90;4.50;;;;;;;1.01;95.28;98276.45;108866;1267;25435;-76
2024/01/28 02:41:14;;;;;;;12.20;4.50;;;;;;;1.02;95.38;98280.34;108878;1273;22688;-76
2024/01/28 02:43:47;;;;;;;13.50;4.80;;;;;;;1.03;95.18;98284.37;108903;1267;25348;-76
2024/01/28 02:46:20;;;;;;;13.50;5.00;;;;;;;1.05;95.22;98288.20;108882;1270;23364;-76
2024/01/28 02:48:56;;;;;;;9.90;3.90;;;;;;;1.05;95.35;98287.65;108863;1267;25421;-76
2024/01/28 02:51:27;;;;;;;14.30;5.40;;;;;;;1.06;95.47;98293.08;108826;1272;22530;-76
2024/01/28 02:54:03;;;;;;;16.20;5.30;;;;;;;1.08;95.37;98291.27;108868;1273;22582;-75
2024/01/28 02:56:36;;;;;;;14.30;4.70;;;;;;;1.09;95.22;98293.34;108901;1272;25327;-75
2024/01/28 02:59:07;;;;;;;10.60;5.20;;;;;;;1.10;95.43;98291.17;108864;1267;23855;-77
2024/01/28 03:01:46;;;;;;;14.70;5.00;;;;;;;1.12;95.25;98291.85;108840;1270;26988;-77
2024/01/28 03:04:20;;;;;;;13.90;4.90;;;;;;;1.13;95.37;98291.38;108899;1272;24219;-77
2024/01/28 03:06:50;;;;;;;9.50;4.00;;;;;;;1.13;95.32;98299.73;108795;1263;22519;-77
2024/01/28 03:09:24;;;;;;;14.60;5.50;;;;;;;1.12;95.41;98291.66;108891;1265;25300;-77
2024/01/28 03:11:58;;;;;;;11.50;5.20;;;;;;;1.10;95.17;98301.66;108875;1269;22528;-76
2024/01/28 03:14:32;;;;;;;12.70;4.70;;;;;;;1.09;95.37;98297.95;108915;1268;23031;-77
2024/01/28 03:17:06;;;;;;;14.40;5.40;;;;;;;1.07;95.54;98307.60;108894;1270;22556;-77
2024/01/28 03:19:40;;;;;;;11.10;4.70;;;;;;;1.07;95.59;98308.98;108880;1272;22563;-77
2024/01/28 03:22:11;;;;;;;16.70;5.10;;;;;;;1.09;95.77;98307.88;108948;1272;22521;-77
2024/01/28 03:24:44;;;;;;;15.70;6.10;;;;;;;1.11;95.77;98313.25;109112;1269;24359;-78
2024/01/28 03:27:17;;;;;;;12.70;5.10;;;;;;;1.12;95.99;98304.52;109124;1272;22675;-78
2024/01/28 03:29:51;;;;;;;14.40;5.40;;;;;;;1.13;95.90;98310.41;109100;1251;22539;-78
2024/01/28 03:32:24;;;;;;;12.00;5.20;;;;;;;1.08;95.55;98320.85;109130;1272;23749;-77
2024/01/28 03:34:55;;;;;;;12.10;5.40;;;;;;;1.04;95.73;98324.60;109170;1272;22533;-75
2024/01/28 03:37:27;;;;;;;14.60;5.70;;;;;;;1.00;96.01;98325.27;108904;1269;23477;-75
2024/01/28 03:39:58;;;;;;;12.00;4.60;;;;;;;1.00;96.00;98329.34;108829;1273;22576;-75
2024/01/28 03:42:35;;;;;;;13.30;4.70;;;;;;;1.01;96.17;98336.56;108907;1260;22923;-75
2024/01/28 03:45:09;;;;;;;10.10;4.00;;;;;;;1.01;96.18;98341.38;108868;1267;23845;-75
2024/01/28 03:47:40;;;;;;;10.60;4.10;;;;;;;1.03;96.36;98348.61;108904;1272;23868;-75
2024/01/28 03:50:19;;;;;;;11.80;3.80;;;;;;;1.03;96.58;98351.38;108877;1269;22551;-75
2024/01/28 03:52:49;;;;;;;;;;;;;;;1.08;96.60;98348.73;108863;1267;23657;-75
2024/01/28 03:55:20;;;;;;;6.60;3.50;;;;;;;1.11;96.68;98351.63;108892;1272;23846;-75
2024/01/28 03:57:54;;;;;;;7.40;3.10;;;;;;;1.13;96.53;98351.70;108864;1266;22525;-75
2024/01/28 04:00:28;;;;;;;7.90;3.30;;;;;;;1.10;96.40;98347.98;108885;1273;23704;-76
2024/01/28 04:03:02;;;;;;;8.50;2.90;;;;;;;1.08;96.37;98355.28;108907;1272;22517;-75
2024/01/28 04:05:33;;;;;;;6.60;2.90;;;;;;;1.11;96.43;98350.34;108896;1272;22531;-76
2024/01/28 04:08:13;;;;;;;9.50;2.80;;;;;;;1.14;96.67;98345.43;108916;1273;22523;-75
2024/01/28 04:10:47;;;;;;;7.90;3.30;;;;;;;1.17;96.86;98346.15;108892;1267;22539;-75
2024/01/28 04:13:20;;;;;;;8.80;3.20;;;;;;;1.19;96.89;98343.94;108877;1273;22569;-75
2024/01/28 04:15:53;;;;;;;7.80;3.00;;;;;;;1.22;96.73;98340.55;108863;1266;22532;-75
2024/01/28 04:18:27;;;;;;;6.80;2.80;;;;;;;1.21;96.62;98343.64;108911;1272;24231;-75
2024/01/28 04:20:59;;;;;;;10.20;3.50;;;;;;;1.18;96.49;98346.05;108849;1272;24192;-75
2024/01/28 04:23:32;;;;;;;9.20;3.20;;;;;;;1.16;96.69;98348.55;108869;1266;25511;-75
2024/01/28 04:26:06;;;;;;;9.10;3.50;;;;;;;1.14;96.81;98352.35;108899;1272;22784;-75
2024/01/28 04:28:41;;;;;;;7.20;3.90;;;;;;;1.15;96.88;98346.50;108869;1267;23013;-75
2024/01/28 04:31:16;;;;;;;7.20;3.50;;;;;;;1.15;97.13;98352.92;108837;1272;24179;-75
2024/01/28 04:33:48;;;;;;;8.40;3.40;;;;;;;1.14;97.07;98344.86;108903;1272;22544;-75
2024/01/28 04:36:21;;;;;;;9.10;3.50;;;;;;;1.04;96.74;98348.90;108843;1266;22610;-75
2024/01/28 04:38:55;;;;;;;8.00;3.80;;;;;;;0.99;96.94;98349.30;108895;1273;25414;-75
2024/01/28 04:41:29;;;;;;;8.00;3.70;;;;;;;0.98;97.21;98350.19;108900;1267;24160;-76
2024/01/28 04:44:03;;;;;;;7.20;3.40;;;;;;;0.97;97.29;98345.99;108993;1267;22574;-75
2024/01/28 04:46:35;;;;;;;9.80;3.80;;;;;;;0.97;97.18;98341.27;108976;1267;23870;-76
2024/01/28 04:49:11;;;;;;;6.20;4.10;;;;;;;1.01;97.65;98342.46;108914;1273;22641;-77
2024/01/28 04:51:44;;;;;;;9.40;4.00;;;;;;;1.05;97.54;98341.80;109003;1269;23679;-76
2024/01/28 04:54:15;;;;;;;9.10;4.60;;;;;;;0.99;97.48;98344.71;108968;1265;22526;-76
2024/01/28 04:56:49;;;;;;;13.30;5.00;;;;;;;0.98;97.63;98346.38;108985;1273;22695;-76
2024/01/28 04:59:21;;;;;;;7.40;3.30;;;;;;;0.97;97.55;98344.04;108993;1269;25439;-76
2024/01/28 05:01:58;;;;;;;6.90;3.70;;;;;;;0.95;97.33;98343.23;108999;1272;22517;-77
2024/01/28 05:04:31;;;;;;;7.30;3.80;;;;;;;0.92;97.56;98342.78;109007;1273;22572;-76
2024/01/28 05:07:09;;;;;;;8.00;3.40;;;;;;;0.93;97.67;98344.60;109006;1266;22634;-77
2024/01/28 05:09:47;;;;;;;7.70;3.70;;;;;;;0.92;97.71;98347.64;108956;1271;22626;-76
2024/01/28 05:12:20;;;;;;;7.60;2.90;;;;;;;0.92;98.06;98355.05;108940;1267;22526;-76
2024/01/28 05:14:54;;;;;;;4.40;2.40;;;;;;;0.93;98.03;98362.60;109017;1272;22603;-76
2024/01/28 05:17:26;;;;;;;5.20;2.80;;;;;;;0.98;98.26;98367.35;109026;1272;22544;-77
2024/01/28 05:19:57;;;;;;;6.00;2.80;;;;;;;1.02;98.38;98376.64;108986;1266;22532;-76
2024/01/28 05:22:29;;;;;;;4.50;2.60;;;;;;;1.05;98.65;98380.94;109022;1272;23697;-76
2024/01/28 05:25:02;;;;;;;5.70;2.40;;;;;;;1.08;98.64;98382.48;108979;1266;22496;-76
2024/01/28 05:27:39;;;;;;;5.10;3.10;;;;;;;1.11;98.73;98392.73;108927;1272;22549;-77
2024/01/28 05:30:13;;;;;;;5.50;3.10;;;;;;;1.14;98.79;98398.95;108883;1272;23289;-77
2024/01/28 05:32:47;;;;;;;7.30;3.70;;;;;;;1.16;98.64;98405.02;108866;1266;28695;-77
2024/01/28 05:35:20;;;;;;;7.80;4.30;;;;;;;1.21;98.70;98403.04;108908;1270;23798;-77
2024/01/28 05:37:57;;;;;;;8.30;3.80;;;;;;;1.18;98.65;98405.09;108823;1272;22600;-77
2024/01/28 05:40:32;;;;;;;9.80;4.90;;;;;;;1.16;98.62;98406.02;108855;1273;22633;-77
2024/01/28 05:43:05;;;;;;;10.00;5.20;;;;;;;1.15;98.77;98404.03;108958;1272;22517;-77
2024/01/28 05:45:36;;;;;;;7.90;4.70;;;;;;;1.09;98.70;98405.48;108837;1266;22545;-77
2024/01/28 05:48:10;;;;;;;11.20;5.30;;;;;;;1.03;98.36;98407.80;108898;1273;23245;-77
2024/01/28 05:50:41;;;;;;;8.90;4.50;;;;;;;1.01;98.75;98404.23;108880;1272;25106;-77
2024/01/28 05:53:15;;;;;;;12.50;5.70;;;;;;;1.04;98.80;98400.34;108888;1273;24243;-77
2024/01/28 05:55:46;;;;;;;10.20;6.00;;;;;;;1.01;98.78;98399.39;108921;1269;22514;-77
2024/01/28 05:58:19;;;;;;;11.40;5.20;;;;;;;1.05;99.08;98403.61;108890;1272;23701;-77
2024/01/28 06:00:51;;;;;;;8.80;5.90;;;;;;;1.05;99.21;98402.84;108866;1266;22624;-77
2024/01/28 06:03:26;;;;;;;7.70;4.20;;;;;;;1.07;99.17;98406.61;109114;1273;22643;-77
2024/01/28 06:06:02;;;;;;;7.50;4.40;;;;;;;1.04;99.11;98408.77;109166;1266;22526;-77
2024/01/28 06:08:35;;;;;;;4.70;2.60;;;;;;;1.01;98.93;98411.02;108916;1273;22834;-76
2024/01/28 06:11:10;;;;;;;3.60;2.30;;;;;;;1.03;99.15;98417.03;108877;1265;22579;-77
2024/01/28 06:13:41;;;;;;;3.70;2.20;;;;;;;1.05;99.13;98419.04;108904;1259;22517;-76
2024/01/28 06:16:11;;;;;;;4.30;2.70;;;;;;;1.05;99.20;98416.39;108954;1272;22492;-76
2024/01/28 06:18:43;;;;;;;5.30;2.50;;;;;;;1.05;99.43;98419.36;108955;1267;22567;-77
2024/01/28 06:21:22;;;;;;;5.10;2.50;;;;;;;1.05;99.41;98420.44;108875;1272;22605;-77
2024/01/28 06:23:55;;;;;;;4.20;2.50;;;;;;;1.04;99.25;98424.73;108954;1273;24314;-76
2024/01/28 06:26:28;;;;;;;4.70;2.80;;;;;;;1.05;99.38;98427.23;108880;1272;22549;-76
2024/01/28 06:29:02;;;;;;;3.50;2.30;;;;;;;1.02;99.13;98425.56;108884;1273;22647;-77
2024/01/28 06:31:33;;;;;;;4.50;2.30;;;;;;;0.97;99.06;98420.81;108858;1272;22651;-77
2024/01/28 06:34:04;;;;;;;3.20;2.00;;;;;;;0.96;99.47;98421.86;108902;1272;22613;-77
2024/01/28 06:36:40;;;;;;;4.30;2.40;;;;;;;0.96;99.28;98421.54;108888;1272;24219;-77
2024/01/28 06:39:11;;;;;;;5.40;2.20;;;;;;;0.97;99.37;98424.21;108924;1272;22521;-76
2024/01/28 06:41:47;;;;;;;3.70;1.60;;;;;;;0.93;99.46;98431.54;108944;1267;24212;-76
2024/01/28 06:44:21;;;;;;;3.40;2.20;;;;;;;0.90;99.39;98437.64;108952;1273;22527;-77
2024/01/28 06:46:56;;;;;;;3.10;2.00;;;;;;;0.91;99.76;98443.11;108961;1273;23148;-76
2024/01/28 06:49:27;;;;;;;3.40;1.90;;;;;;;0.93;99.66;98443.98;108957;1273;23752;-76
2024/01/28 06:52:00;;;;;;;4.40;2.40;;;;;;;0.93;99.81;98443.46;108897;1271;23778;-76
2024/01/28 06:54:31;;;;;;;3.90;2.40;;;;;;;0.94;99.74;98446.09;108933;1266;22524;-76
2024/01/28 06:57:02;;;;;;;6.00;3.00;;;;;;;0.94;99.97;98441.20;108901;1273;26300;-76
2024/01/28 06:59:33;;;;;;;4.10;2.60;;;;;;;0.94;99.96;98443.97;108895;1273;22553;-77
2024/01/28 07:02:08;;;;;;;4.70;2.70;;;;;;;0.95;99.99;98455.91;108883;1272;24300;-77
2024/01/28 07:04:40;;;;;;;5.00;3.40;;;;;;;0.95;99.99;98456.63;108904;1272;22517;-77
2024/01/28 07:07:12;;;;;;;4.60;3.20;;;;;;;0.94;100.00;98457.94;108876;1266;23733;-76
2024/01/28 07:09:46;;;;;;;7.00;3.20;;;;;;;0.91;99.93;98461.91;108881;1266;22541;-76
2024/01/28 07:12:24;;;;;;;6.20;4.10;;;;;;;0.88;99.91;98459.62;108872;1271;22539;-76
2024/01/28 07:14:58;;;;;;;5.30;3.80;;;;;;;0.92;100.00;98457.95;108854;1271;22658;-76
2024/01/28 07:17:32;;;;;;;7.00;4.80;;;;;;;0.99;100.00;98460.70;108954;1266;22516;-77
2024/01/28 07:20:08;;;;;;;6.20;4.40;;;;;;;1.00;100.00;98460.77;108995;1267;22500;-77
2024/01/28 07:22:39;;;;;;;6.10;3.70;;;;;;;1.03;100.00;98465.93;108894;1266;24007;-77
2024/01/28 07:25:11;;;;;;;7.40;4.30;;;;;;;1.07;100.00;98464.27;108903;1273;22682;-77
2024/01/28 07:27:48;;;;;;;6.40;4.30;;;;;;;1.09;100.00;98468.70;108895;1269;22592;-77
2024/01/28 07:30:22;;;;;;;7.10;4.60;;;;;;;1.13;100.00;98471.39;108847;1272;22526;-76
2024/01/28 07:32:54;;;;;;;8.60;4.80;;;;;;;1.10;100.00;98469.11;108891;1269;24321;-76
2024/01/28 07:35:26;;;;;;;8.70;5.00;;;;;;;1.04;100.00;98475.59;108886;1269;23813;-77
2024/01/28 07:37:57;;;;;;;6.90;4.00;;;;;;;1.06;100.00;98474.34;108908;1266;23641;-77
2024/01/28 07:40:29;;;;;;;9.60;5.60;;;;;;;1.10;100.00;98471.95;108870;1266;22531;-77
2024/01/28 07:43:01;;;;;;;8.80;5.20;;;;;;;1.10;100.00;98477.20;108856;1267;24024;-76
2024/01/28 07:45:36;;;;;;;7.70;5.30;;;;;;;1.05;100.00;98478.81;108871;1272;23835;-76
2024/01/28 07:48:16;;;;;;;9.10;4.90;;;;;;;1.01;100.00;98475.05;108874;1265;22525;-76
2024/01/28 07:50:50;;;;;;;7.50;5.60;;;;;;;0.97;100.00;98479.73;108848;1272;22826;-77
2024/01/28 07:53:21;;;;;;;4.70;3.50;;;;;;;0.92;100.00;98475.36;108910;1272;25243;-77
2024/01/28 07:56:03;;;;;;;7.30;4.00;;;;;;;1.02;100.00;98479.15;108914;1273;23648;-77
2024/01/28 07:58:34;;;;;;;9.00;5.10;;;;;;;1.11;100.00;98481.61;108920;1272;23313;-77
2024/01/28 08:01:06;;;;;;;8.00;4.90;;;;;;;1.10;100.00;98484.09;108915;1273;23054;-77
2024/01/28 08:03:40;;;;;;;8.00;5.20;;;;;;;1.13;100.00;98483.99;108887;1273;22596;-77
2024/01/28 08:06:12;;;;;;;6.40;4.50;;;;;;;1.12;100.00;98485.13;108966;1273;23414;-77
2024/01/28 08:08:46;;;;;;;8.60;4.50;;;;;;;1.11;100.00;98484.67;108948;1272;25417;-77
2024/01/28 08:11:20;;;;;;;6.60;4.50;;;;;;;1.18;100.00;98486.23;108798;1269;22542;-77
2024/01/28 08:13:54;;;;;;;8.30;4.50;;;;;;;1.30;100.00;98488.77;108909;1273;22566;-77
2024/01/28 08:16:29;;;;;;;9.50;5.50;;;;;;;1.37;100.00;98491.18;108859;1272;22523;-77
2024/01/28 08:19:04;;;;;;;8.40;5.40;;;;;;;1.42;100.00;98493.75;108912;1266;22524;-77
2024/01/28 08:21:36;;;;;;;8.90;5.10;;;;;;;1.45;100.00;98494.25;108852;1266;22656;-77
2024/01/28 08:24:16;;;;;;;6.40;4.60;;;;;;;1.43;100.00;98491.88;108892;1273;22520;-76
2024/01/28 08:26:47;;;;;;;9.80;5.00;;;;;;;1.45;100.00;98496.38;108921;1255;22496;-77
2024/01/28 08:29:18;;;;;;;7.70;5.30;;;;;;;1.44;100.00;98495.31;108886;1266;25951;-76
2024/01/28 08:31:54;;;;;;;9.70;6.10;;;;;;;1.44;100.00;98493.67;108878;1272;24244;-76
2024/01/28 08:34:28;;;;;;;8.60;5.50;;;;;;;1.40;100.00;98496.11;109142;1266;24308;-76
2024/01/28 08:37:01;;;;;;;7.00;4.70;;;;;;;1.49;100.00;98498.05;109111;1265;22563;-78
2024/01/28 08:39:35;;;;;;;8.20;4.90;;;;;;;1.56;100.00;98496.77;109096;1272;25233;-73
2024/01/28 08:42:06;;;;;;;10.10;6.10;;;;;;;1.58;100.00;98505.52;108865;1272;22520;-75
2024/01/28 08:44:38;;;;;;;10.70;6.80;;;;;;;1.59;100.00;98504.91;108869;1271;22782;-75
2024/01/28 08:47:10;;;;;;;7.70;4.60;;;;;;;1.64;100.00;98508.52;108876;1270;22535;-76
2024/01/28 08:49:41;;;;;;;6.20;3.90;;;;;;;1.66;100.00;98508.80;108913;1266;24014;-77
2024/01/28 08:52:12;;;;;;;6.70;3.60;;;;;;;1.67;100.00;98508.33;108885;1266;22550;-77
2024/01/28 08:54:47;;;;;;;5.60;3.60;;;;;;;1.72;100.00;98508.60;108894;1269;24292;-77
2024/01/28 08:57:18;;;;;;;6.90;4.10;;;;;;;1.77;100.00;98517.80;108916;1265;22746;-76
2024/01/28 08:59:55;;;;;;;12.60;8.90;;;;;;;1.77;100.00;98518.20;108844;1270;22523;-77
2024/01/28 09:02:27;;;;;;;11.00;8.40;;;;;;;1.75;100.00;98522.59;108833;1271;22907;-78
2024/01/28 09:05:02;;;;;;;6.30;4.80;;;;;;;1.78;100.00;98517.58;108919;1266;22498;-77
2024/01/28 09:07:37;;;;;;;7.50;4.50;;;;;;;1.85;100.00;98521.29;108826;1266;22640;-78
2024/01/28 09:10:09;;;;;;;7.40;5.20;;;;;;;1.83;100.00;98522.94;108853;1272;22531;-78
2024/01/28 09:12:41;;;;;;;7.70;3.70;;;;;;;1.74;100.00;98519.92;108772;1272;22520;-78
2024/01/28 09:15:13;;;;;;;7.00;4.80;;;;;;;1.74;100.00;98520.55;108844;1269;22482;-77
2024/01/28 09:17:47;;;;;;;8.20;5.10;;;;;;;1.77;100.00;98520.46;108916;1270;22530;-77
2024/01/28 09:20:24;;;;;;;9.90;4.90;;;;;;;1.80;100.00;98522.91;108953;1269;22538;-77
2024/01/28 09:22:55;;;;;;;8.50;5.00;;;;;;;1.85;100.00;98522.58;108890;1272;23218;-77
2024/01/28 09:25:28;;;;;;;7.40;4.40;;;;;;;1.91;100.00;98527.45;108889;1272;22532;-77
2024/01/28 09:28:05;;;;;;;8.70;4.10;;;;;;;1.95;100.00;98532.30;108856;1272;22516;-78
2024/01/28 09:30:36;;;;;;;8.20;5.40;;;;;;;1.99;100.00;98539.75;108858;1266;22541;-78
2024/01/28 09:33:07;;;;;;;7.90;4.80;;;;;;;1.95;100.00;98535.25;108831;1272;22683;-78
2024/01/28 09:35:39;;;;;;;5.90;4.10;;;;;;;1.92;100.00;98538.05;108856;1249;22558;-77
2024/01/28 09:38:12;;;;;;;6.50;4.50;;;;;;;1.97;100.00;98537.00;108902;1269;24167;-77
2024/01/28 09:40:49;;;;;;;8.80;4.90;;;;;;;1.99;100.00;98538.66;108886;1266;23894;-78
2024/01/28 09:43:30;;;;;;;7.30;4.00;;;;;;;1.94;100.00;98529.90;108828;1272;22604;-77
2024/01/28 09:46:03;;;;;;;7.10;4.90;;;;;;;1.89;100.00;98533.06;108915;1272;22613;-77
2024/01/28 09:48:37;;;;;;;8.30;4.10;;;;;;;1.86;100.00;98536.88;108868;1259;23234;-77
2024/01/28 09:51:10;;;;;;;7.70;4.90;;;;;;;1.87;100.00;98538.83;108850;1273;25901;-77
2024/01/28 09:53:49;;;;;;;9.40;5.30;;;;;;;1.84;100.00;98539.16;108868;1266;24167;-77
2024/01/28 09:56:21;;;;;;;9.10;5.10;;;;;;;1.82;100.00;98537.50;108817;1272;22524;-76
2024/01/28 09:58:53;;;;;;;7.00;4.70;;;;;;;1.76;100.00;98536.25;108914;1266;25294;-77
2024/01/28 10:01:30;;;;;;;8.00;4.70;;;;;;;1.73;100.00;98538.30;108828;1266;24873;-77
2024/01/28 10:04:03;;;;;;;7.40;5.20;;;;;;;1.76;100.00;98538.18;108791;1273;22527;-76
2024/01/28 10:06:39;;;;;;;8.10;5.30;;;;;;;1.81;100.00;98540.79;108840;1272;23549;-77
2024/01/28 10:09:10;;;;;;;7.20;4.50;;;;;;;1.84;100.00;98544.27;108947;1272;25421;-76
2024/01/28 10:11:47;;;;;;;7.30;4.00;;;;;;;1.91;100.00;98543.55;108841;1271;25415;-76
2024/01/28 10:14:20;;;;;;;5.90;4.70;;;;;;;1.99;100.00;98540.20;108978;1269;22688;-76
2024/01/28 10:16:55;;;;;;;8.70;5.20;;;;;;;1.98;100.00;98540.41;108936;1268;22618;-76
2024/01/28 10:19:26;;;;;;;8.10;5.10;;;;;;;1.97;100.00;98540.30;108971;1269;25423;-76
2024/01/28 10:22:00;;;;;;;6.60;4.00;;;;;;;1.96;100.00;98538.71;108861;1266;22551;-75
2024/01/28 10:24:31;;;;;;;7.50;4.10;;;;;;;1.95;100.00;98534.98;108908;1266;25256;-75
2024/01/28 10:27:03;;;;;;;8.40;5.20;;;;;;;1.99;100.00;98536.08;108859;1272;22489;-76
2024/01/28 10:29:34;;;;;;;8.80;6.30;;;;;;;2.01;100.00;98540.55;108840;1272;22525;-75
2024/01/28 10:32:09;;;;;;;11.00;7.00;;;;;;;2.01;100.00;98540.95;108789;1272;22538;-76
2024/01/28 10:34:43;;;;;;;12.90;8.30;;;;;;;2.06;100.00;98541.86;108829;1273;24148;-75
2024/01/28 10:37:18;;;;;;;10.60;6.90;;;;;;;2.11;100.00;98541.88;108854;1273;22578;-76
2024/01/28 10:39:54;;;;;;;8.90;6.10;;;;;;;2.07;100.00;98539.30;108882;1272;25415;-76
2024/01/28 10:42:32;;;;;;;9.30;5.30;;;;;;;2.10;100.00;98538.27;108941;1267;23836;-75
2024/01/28 10:45:09;;;;;;;9.50;5.70;;;;;;;2.19;100.00;98539.70;108928;1271;22562;-75
2024/01/28 10:47:53;;;;;;;11.70;6.70;;;;;;;2.20;100.00;98537.14;109026;1273;22550;-75
2024/01/28 10:50:28;;;;;;;9.40;5.90;;;;;;;2.17;100.00;98537.49;108979;1272;22539;-75
2024/01/28 10:53:02;;;;;;;9.80;6.00;;;;;;;2.19;100.00;98539.17;108936;1269;22687;-75
2024/01/28 10:55:34;;;;;;;9.30;5.20;;;;;;;2.28;100.00;98535.23;108577;1265;24279;-75
2024/01/28 10:58:11;;;;;;;11.60;6.10;;;;;;;2.32;100.00;98537.42;108984;1265;23931;-75
2024/01/28 11:00:44;;;;;;;10.60;5.90;;;;;;;2.26;100.00;98540.63;108819;1262;25246;-75
2024/01/28 11:03:16;;;;;;;9.50;5.60;;;;;;;2.23;100.00;98538.15;108850;1266;24190;-76
2024/01/28 11:05:52;;;;;;;12.50;7.10;;;;;;;2.28;100.00;98540.38;108798;1266;22826;-75
2024/01/28 11:08:23;;;;;;;9.80;5.30;;;;;;;2.29;100.00;98535.92;108862;1266;22520;-75
2024/01/28 11:11:03;;;;;;;9.30;5.70;;;;;;;2.26;100.00;98533.67;108833;1266;25449;-75
2024/01/28 11:13:38;;;;;;;11.10;5.80;;;;;;;2.23;100.00;98532.88;108853;1266;25414;-76
2024/01/28 11:16:15;;;;;;;9.70;5.20;;;;;;;2.19;100.00;98533.35;108860;1266;23076;-75
2024/01/28 11:19:04;;;;;;;10.60;5.40;;;;;;;2.18;100.00;98529.71;108918;1266;25441;-75
2024/01/28 11:21:34;;;;;;;;;;;;;;;2.18;100.00;98530.19;108990;1266;24343;-75
2024/01/28 11:24:10;;;;;;;11.90;6.00;;;;;;;2.14;100.00;98531.70;108844;1266;25433;-75
2024/01/28 11:26:45;;;;;;;11.50;6.00;;;;;;;2.11;100.00;98535.19;108892;1262;22708;-76
2024/01/28 11:29:22;;;;;;;12.20;6.10;;;;;;;2.10;100.00;98532.64;108782;1257;22517;-76
2024/01/28 11:31:55;;;;;;;9.00;5.40;;;;;;;2.12;100.00;98535.98;108700;1269;24799;-76
2024/01/28 11:34:29;;;;;;;10.40;5.60;;;;;;;2.10;100.00;98539.27;108789;1269;25438;-77
2024/01/28 11:37:04;;;;;;;10.90;5.60;;;;;;;2.11;100.00;98536.59;108769;1266;22611;-77
2024/01/28 11:39:41;;;;;;;9.30;5.60;;;;;;;2.05;100.00;98536.58;108766;1269;24228;-76
2024/01/28 11:42:13;;;;;;;;;;;;;;;2.04;100.00;98537.98;108823;1268;24655;-76
2024/01/28 11:44:49;;;;;;;10.90;6.10;;;;;;;2.02;100.00;98536.45;108745;1266;22556;-76
2024/01/28 11:47:24;;;;;;;11.60;5.70;;;;;;;2.04;100.00;98538.29;108893;1266;22683;-76
2024/01/28 11:50:04;;;;;;;12.90;5.60;;;;;;;2.10;100.00;98534.80;108931;1272;22914;-76
2024/01/28 11:52:36;;;;;;;10.40;6.30;;;;;;;2.08;100.00;98533.60;108824;1266;23854;-74
2024/01/28 11:55:27;;;;;;;9.80;5.50;;;;;;;2.07;100.00;98531.16;108841;1272;23875;-73
2024/01/28 11:57:59;;;;;;;10.10;5.70;;;;;;;2.00;100.00;98535.26;108857;1263;22561;-76